createdAt,value
2019-05-25T00:00:47.343Z,1.20
2019-05-25T00:03:15.252Z,1.40
2019-05-25T00:05:43.235Z,1.30
2019-05-25T00:08:12.372Z,1.40
2019-05-25T00:10:40.541Z,1.57
2019-05-25T00:13:08.550Z,1.50
2019-05-25T00:15:36.548Z,1.47
2019-05-25T00:18:04.544Z,1.60
2019-05-25T00:20:32.523Z,1.50
2019-05-25T00:23:00.520Z,1.30
2019-05-25T00:25:28.460Z,1.50
2019-05-25T00:27:56.444Z,1.37
2019-05-25T00:30:24.433Z,1.37
2019-05-25T00:32:52.408Z,1.50
2019-05-25T00:35:20.346Z,1.60
2019-05-25T00:37:48.320Z,1.43
2019-05-25T00:40:16.236Z,1.47
2019-05-25T00:42:44.165Z,1.40
2019-05-25T00:45:12.324Z,1.43
2019-05-25T00:47:40.275Z,1.30
2019-05-25T00:50:08.311Z,1.40
2019-05-25T00:52:36.320Z,1.60
2019-05-25T00:55:04.685Z,1.20
2019-05-25T00:57:32.570Z,1.30
2019-05-25T01:00:00.547Z,1.23
2019-05-25T01:02:28.456Z,1.30
2019-05-25T01:04:56.361Z,1.50
2019-05-25T01:07:24.282Z,1.50
2019-05-25T01:09:52.287Z,1.40
2019-05-25T01:12:20.351Z,1.50
2019-05-25T01:14:48.270Z,1.70
2019-05-25T01:17:16.257Z,1.67
2019-05-25T01:19:44.300Z,1.50
2019-05-25T01:22:12.357Z,1.37
2019-05-25T01:24:44.480Z,1.50
2019-05-25T01:27:10.142Z,1.50
2019-05-25T01:29:38.111Z,1.57
2019-05-25T01:32:06.027Z,1.60
2019-05-25T01:34:33.960Z,1.50
2019-05-25T01:37:01.878Z,1.50
2019-05-25T01:39:29.786Z,1.60
2019-05-25T01:41:57.773Z,1.60
2019-05-25T01:44:25.680Z,1.40
2019-05-25T01:46:53.628Z,1.67
2019-05-25T01:49:21.528Z,1.60
2019-05-25T01:51:49.439Z,1.40
2019-05-25T01:54:17.428Z,1.40
2019-05-25T01:56:45.319Z,1.30
2019-05-25T01:59:13.347Z,1.30
2019-05-25T02:01:41.255Z,1.30
2019-05-25T02:04:09.224Z,1.40
2019-05-25T02:06:37.187Z,1.57
2019-05-25T02:09:06.436Z,1.50
2019-05-25T02:11:34.477Z,1.40
2019-05-25T02:14:02.471Z,1.30
2019-05-25T02:16:30.531Z,1.73
2019-05-25T02:18:58.462Z,1.40
2019-05-25T02:21:26.436Z,1.40
2019-05-25T02:23:54.436Z,1.40
2019-05-25T02:26:22.471Z,1.40
2019-05-25T02:28:50.456Z,1.60
2019-05-25T02:31:18.471Z,1.30
2019-05-25T02:33:46.428Z,1.50
2019-05-25T02:36:14.434Z,1.30
2019-05-25T02:38:42.459Z,1.43
2019-05-25T02:41:10.573Z,1.30
2019-05-25T02:43:38.544Z,1.37
2019-05-25T02:46:06.568Z,1.70
2019-05-25T02:48:34.482Z,1.50
2019-05-25T02:51:02.467Z,1.50
2019-05-25T02:53:30.466Z,1.40
2019-05-25T02:55:58.459Z,1.47
2019-05-25T02:58:26.461Z,1.43
2019-05-25T03:00:54.559Z,1.40
2019-05-25T03:03:22.613Z,1.70
2019-05-25T03:05:50.825Z,1.40
2019-05-25T03:08:18.796Z,2.00
2019-05-25T03:11:02.949Z,1.50
2019-05-25T03:13:32.305Z,1.30
2019-05-25T03:16:00.332Z,1.37
2019-05-25T03:18:28.345Z,1.30
2019-05-25T03:20:56.383Z,1.43
2019-05-25T03:23:24.345Z,1.40
2019-05-25T03:25:52.347Z,1.30
2019-05-25T03:28:20.416Z,1.30
2019-05-25T03:30:48.459Z,1.43
2019-05-25T03:33:16.424Z,1.17
2019-05-25T03:35:44.420Z,1.03
2019-05-25T03:38:12.412Z,1.00
2019-05-25T03:40:40.369Z,1.10
2019-05-25T03:43:09.288Z,1.10
2019-05-25T03:45:37.263Z,1.10
2019-05-25T03:48:05.404Z,1.13
2019-05-25T03:50:33.419Z,1.10
2019-05-25T03:53:01.476Z,1.27
2019-05-25T03:55:29.449Z,1.20
2019-05-25T03:57:57.782Z,1.10
2019-05-25T04:00:33.103Z,1.20
2019-05-25T04:03:01.453Z,1.20
2019-05-25T04:05:29.412Z,1.10
2019-05-25T04:07:57.530Z,1.20
2019-05-25T04:10:25.604Z,1.10
2019-05-25T04:12:53.599Z,1.07
2019-05-25T04:15:21.563Z,1.30
2019-05-25T04:17:49.559Z,1.30
2019-05-25T04:20:17.500Z,1.10
2019-05-25T04:22:45.434Z,1.33
2019-05-25T04:25:13.436Z,1.10
2019-05-25T04:27:41.341Z,1.13
2019-05-25T04:30:09.492Z,1.17
2019-05-25T04:32:37.445Z,1.10
2019-05-25T04:35:05.425Z,1.20
2019-05-25T04:37:33.468Z,1.00
2019-05-25T04:40:01.468Z,1.17
2019-05-25T04:42:29.441Z,1.30
2019-05-25T04:44:57.371Z,1.30
2019-05-25T04:47:27.143Z,1.30
2019-05-25T04:49:55.059Z,1.10
2019-05-25T04:52:23.067Z,1.13
2019-05-25T04:54:51.100Z,1.20
2019-05-25T04:57:19.007Z,1.30
2019-05-25T04:59:47.050Z,1.20
2019-05-25T05:02:15.006Z,1.60
2019-05-25T05:04:42.915Z,1.30
2019-05-25T05:07:10.855Z,1.23
2019-05-25T05:09:38.832Z,1.20
2019-05-25T05:12:06.836Z,1.40
2019-05-25T05:14:34.820Z,1.20
2019-05-25T05:17:02.851Z,1.20
2019-05-25T05:19:30.816Z,1.20
2019-05-25T05:21:58.735Z,1.30
2019-05-25T05:24:26.852Z,1.30
2019-05-25T05:26:56.372Z,1.50
2019-05-25T05:29:24.725Z,1.30
2019-05-25T05:31:52.739Z,1.30
2019-05-25T05:34:20.736Z,1.30
2019-05-25T05:36:49.176Z,1.20
2019-05-25T05:39:17.203Z,1.10
2019-05-25T05:41:46.593Z,1.40
2019-05-25T05:44:14.733Z,1.50
2019-05-25T05:46:44.192Z,1.40
2019-05-25T05:49:12.411Z,1.40
2019-05-25T05:51:40.956Z,1.33
2019-05-25T05:54:08.989Z,1.37
2019-05-25T05:56:37.049Z,1.30
2019-05-25T05:59:04.988Z,1.50
2019-05-25T06:01:32.972Z,1.97
2019-05-25T06:04:01.298Z,2.20
2019-05-25T06:06:29.264Z,1.87
2019-05-25T06:08:57.184Z,1.80
2019-05-25T06:11:25.180Z,2.17
2019-05-25T06:13:53.199Z,2.07
2019-05-25T06:16:21.204Z,2.20
2019-05-25T06:18:49.157Z,2.20
2019-05-25T06:21:17.177Z,2.20
2019-05-25T06:23:45.091Z,2.20
2019-05-25T06:26:13.079Z,2.20
2019-05-25T06:28:40.983Z,2.30
2019-05-25T06:31:08.964Z,1.90
2019-05-25T06:33:36.894Z,2.30
2019-05-25T06:36:04.968Z,2.10
2019-05-25T06:38:32.971Z,2.20
2019-05-25T06:41:01.018Z,2.20
2019-05-25T06:43:29.016Z,2.30
2019-05-25T06:45:57.853Z,2.70
2019-05-25T06:48:25.947Z,2.60
2019-05-25T06:50:53.934Z,3.10
2019-05-25T06:53:21.902Z,3.20
2019-05-25T06:55:49.920Z,3.20
2019-05-25T06:58:17.936Z,4.70
2019-05-25T07:00:45.927Z,7.00
2019-05-25T07:03:13.892Z,4.83
2019-05-25T07:15:10.788Z,4.43
2019-05-25T07:17:41.311Z,4.70
2019-05-25T07:20:09.886Z,3.83
2019-05-25T07:22:37.885Z,3.50
2019-05-25T07:25:06.288Z,3.50
2019-05-25T07:27:34.319Z,4.20
2019-05-25T07:30:02.313Z,3.20
2019-05-25T07:32:30.307Z,3.30
2019-05-25T07:34:58.300Z,3.53
2019-05-25T07:37:26.383Z,3.37
2019-05-25T07:39:54.357Z,3.53
2019-05-25T07:42:22.296Z,3.03
2019-05-25T07:44:50.260Z,3.53
2019-05-25T07:47:18.202Z,3.10
2019-05-25T07:49:46.195Z,2.73
2019-05-25T07:52:14.175Z,3.00
2019-05-25T07:54:42.099Z,3.50
2019-05-25T07:57:09.999Z,2.97
2019-05-25T07:59:37.986Z,3.30
2019-05-25T08:02:06.136Z,2.67
2019-05-25T08:04:34.102Z,2.90
2019-05-25T08:07:02.015Z,2.47
2019-05-25T08:09:29.948Z,2.03
2019-05-25T08:11:58.050Z,2.10
2019-05-25T08:14:25.991Z,1.90
2019-05-25T08:16:53.956Z,2.20
2019-05-25T08:19:21.843Z,2.40
2019-05-25T08:21:49.832Z,2.30
2019-05-25T08:24:17.824Z,1.87
2019-05-25T08:26:45.723Z,1.63
2019-05-25T08:29:13.688Z,1.73
2019-05-25T08:31:41.614Z,1.43
2019-05-25T08:34:09.523Z,1.60
2019-05-25T08:36:37.449Z,1.57
2019-05-25T08:39:06.020Z,1.43
2019-05-25T08:41:33.995Z,1.30
2019-05-25T08:44:04.376Z,1.33
2019-05-25T08:46:31.600Z,1.37
2019-05-25T08:48:59.646Z,1.10
2019-05-25T08:51:27.664Z,1.53
2019-05-25T08:53:55.709Z,1.50
2019-05-25T08:56:23.739Z,1.40
2019-05-25T08:58:55.353Z,1.20
2019-05-25T09:01:21.432Z,1.47
2019-05-25T09:03:50.207Z,1.70
2019-05-25T09:06:18.180Z,1.60
2019-05-25T09:08:46.151Z,1.40
2019-05-25T09:11:14.149Z,2.73
2019-05-25T09:13:42.197Z,2.53
2019-05-25T09:16:10.226Z,1.60
2019-05-25T09:18:38.188Z,1.90
2019-05-25T09:21:06.129Z,1.50
2019-05-25T09:23:34.128Z,1.37
2019-05-25T09:26:02.248Z,1.57
2019-05-25T09:28:30.654Z,1.90
2019-05-25T09:30:58.624Z,1.70
2019-05-25T09:33:26.656Z,1.60
2019-05-25T09:35:54.674Z,1.77
2019-05-25T09:38:22.658Z,1.70
2019-05-25T09:40:50.682Z,1.77
2019-05-25T09:43:18.674Z,1.73
2019-05-25T09:45:46.755Z,2.00
2019-05-25T09:48:14.844Z,1.40
2019-05-25T09:50:42.749Z,1.67
2019-05-25T09:53:10.891Z,1.47
2019-05-25T09:55:38.860Z,1.60
2019-05-25T09:58:06.742Z,1.60
2019-05-25T10:00:39.772Z,1.70
2019-05-25T10:03:04.837Z,1.30
2019-05-25T10:05:32.835Z,1.40
2019-05-25T10:08:00.855Z,1.20
2019-05-25T10:10:28.855Z,1.30
2019-05-25T10:12:56.859Z,1.03
2019-05-25T10:15:28.293Z,1.30
2019-05-25T10:17:54.619Z,1.30
2019-05-25T10:20:22.610Z,1.20
2019-05-25T10:22:50.615Z,1.53
2019-05-25T10:25:18.726Z,1.33
2019-05-25T10:27:46.722Z,1.13
2019-05-25T10:30:14.934Z,1.30
2019-05-25T10:32:43.066Z,1.40
2019-05-25T10:35:11.387Z,1.30
2019-05-25T10:37:39.475Z,1.43
2019-05-25T10:40:08.167Z,1.60
2019-05-25T10:42:36.136Z,1.23
2019-05-25T10:45:05.015Z,1.30
2019-05-25T10:47:33.053Z,1.30
2019-05-25T10:50:00.967Z,1.30
2019-05-25T10:52:28.903Z,1.40
2019-05-25T10:54:56.841Z,1.50
2019-05-25T10:57:25.160Z,1.40
2019-05-25T10:59:53.577Z,1.50
2019-05-25T11:02:21.586Z,1.63
2019-05-25T11:04:49.706Z,1.70
2019-05-25T11:07:17.675Z,1.40
2019-05-25T11:09:45.713Z,1.37
2019-05-25T11:12:13.858Z,1.47
2019-05-25T11:14:41.807Z,1.40
2019-05-25T11:17:09.768Z,1.50
2019-05-25T11:19:37.763Z,1.40
2019-05-25T11:22:05.792Z,1.37
2019-05-25T11:24:33.810Z,1.40
2019-05-25T11:27:01.902Z,1.40
2019-05-25T11:29:29.900Z,1.40
2019-05-25T11:32:02.059Z,1.50
2019-05-25T11:34:27.564Z,1.70
2019-05-25T11:36:55.474Z,1.80
2019-05-25T11:39:23.452Z,1.60
2019-05-25T11:41:51.454Z,1.50
2019-05-25T11:44:19.451Z,1.40
2019-05-25T11:46:47.363Z,1.80
2019-05-25T11:49:22.411Z,1.60
2019-05-25T11:51:45.039Z,1.60
2019-05-25T11:54:13.027Z,1.60
2019-05-25T11:56:40.911Z,1.70
2019-05-25T11:59:08.846Z,1.80
2019-05-25T12:01:36.847Z,1.73
2019-05-25T12:04:04.884Z,1.90
2019-05-25T12:06:32.778Z,1.60
2019-05-25T12:09:00.747Z,1.70
2019-05-25T12:11:30.110Z,1.70
2019-05-25T12:13:58.164Z,1.77
2019-05-25T12:16:26.196Z,1.87
2019-05-25T12:18:54.133Z,1.93
2019-05-25T12:21:22.092Z,1.97
2019-05-25T12:23:49.999Z,1.87
2019-05-25T12:26:17.945Z,1.70
2019-05-25T12:28:45.868Z,1.73
2019-05-25T12:31:13.841Z,1.40
2019-05-25T12:33:42.332Z,1.60
2019-05-25T12:36:10.432Z,1.57
2019-05-25T12:38:38.731Z,1.63
2019-05-25T12:41:06.671Z,2.17
2019-05-25T12:43:34.653Z,1.93
2019-05-25T12:46:02.638Z,1.83
2019-05-25T12:48:30.599Z,1.73
2019-05-25T12:50:58.658Z,1.70
2019-05-25T12:53:26.692Z,1.40
2019-05-25T12:55:54.705Z,1.70
2019-05-25T12:58:23.816Z,1.70
2019-05-25T13:00:56.133Z,1.67
2019-05-25T13:03:21.599Z,1.60
2019-05-25T13:05:49.499Z,1.70
2019-05-25T13:08:17.596Z,1.67
2019-05-25T13:10:45.555Z,2.13
2019-05-25T13:13:13.631Z,1.80
2019-05-25T13:15:41.547Z,1.70
2019-05-25T13:18:09.475Z,1.60
2019-05-25T13:20:37.512Z,1.50
2019-05-25T13:23:05.663Z,1.37
2019-05-25T13:25:33.831Z,1.40
2019-05-25T13:28:01.732Z,1.40
2019-05-25T13:30:29.694Z,1.43
2019-05-25T13:32:57.632Z,1.60
2019-05-25T13:35:25.670Z,1.40
2019-05-25T13:37:53.709Z,1.57
2019-05-25T13:40:21.615Z,1.40
2019-05-25T13:42:49.588Z,1.30
2019-05-25T13:45:17.698Z,1.33
2019-05-25T13:47:45.745Z,1.27
2019-05-25T13:50:13.734Z,1.23
2019-05-25T13:52:41.768Z,0.90
2019-05-25T13:55:09.959Z,0.83
2019-05-25T13:57:37.936Z,1.10
2019-05-25T14:00:06.174Z,1.10
2019-05-25T14:02:34.148Z,1.20
2019-05-25T14:05:02.151Z,1.10
2019-05-25T14:07:30.236Z,1.17
2019-05-25T14:09:58.299Z,1.27
2019-05-25T14:12:26.321Z,1.27
2019-05-25T14:14:54.268Z,1.20
2019-05-25T14:17:22.318Z,1.10
2019-05-25T14:19:50.247Z,1.13
2019-05-25T14:22:18.248Z,1.23
2019-05-25T14:24:46.269Z,1.40
2019-05-25T14:27:14.232Z,1.40
2019-05-25T14:29:42.151Z,1.20
2019-05-25T14:32:10.068Z,1.10
2019-05-25T14:34:38.118Z,1.00
2019-05-25T14:37:06.128Z,1.10
2019-05-25T14:39:34.032Z,1.20
2019-05-25T14:42:02.020Z,1.20
2019-05-25T14:44:30.046Z,1.30
2019-05-25T14:46:58.150Z,1.10
2019-05-25T14:49:26.076Z,1.13
2019-05-25T14:51:54.253Z,1.00
2019-05-25T14:54:22.224Z,1.20
2019-05-25T14:56:50.224Z,1.10
2019-05-25T14:59:18.219Z,1.30
2019-05-25T15:02:01.575Z,1.83
2019-05-25T15:04:15.804Z,1.13
2019-05-25T15:06:43.687Z,1.00
2019-05-25T15:09:11.627Z,1.10
2019-05-25T15:11:39.630Z,1.00
2019-05-25T15:14:07.648Z,1.20
2019-05-25T15:16:35.605Z,1.30
2019-05-25T15:19:03.640Z,1.10
2019-05-25T15:21:31.915Z,1.27
2019-05-25T15:24:00.332Z,1.00
2019-05-25T15:26:28.260Z,1.00
2019-05-25T15:28:56.249Z,0.93
2019-05-25T15:31:24.179Z,0.93
2019-05-25T15:33:52.191Z,1.20
2019-05-25T15:36:20.208Z,1.00
2019-05-25T15:38:48.136Z,1.17
2019-05-25T15:41:16.047Z,1.20
2019-05-25T15:43:43.988Z,1.30
2019-05-25T15:46:11.988Z,1.13
2019-05-25T15:48:39.979Z,1.13
2019-05-25T15:51:07.928Z,1.00
2019-05-25T15:53:35.934Z,1.10
2019-05-25T15:56:04.043Z,1.10
2019-05-25T15:58:32.039Z,1.07
2019-05-25T16:01:00.025Z,1.07
2019-05-25T16:03:27.967Z,1.00
2019-05-25T16:05:56.106Z,1.20
2019-05-25T16:08:24.006Z,1.23
2019-05-25T16:10:51.919Z,1.20
2019-05-25T16:13:20.186Z,1.20
2019-05-25T16:15:48.189Z,1.30
2019-05-25T16:18:16.218Z,1.13
2019-05-25T16:20:44.191Z,1.20
2019-05-25T16:23:12.180Z,1.10
2019-05-25T16:25:40.149Z,1.73
2019-05-25T16:28:08.134Z,1.33
2019-05-25T16:30:36.228Z,1.20
2019-05-25T16:35:34.008Z,1.30
2019-05-25T16:37:07.643Z,1.40
2019-05-25T16:38:02.157Z,1.47
2019-05-25T16:40:34.155Z,1.23
2019-05-25T16:43:09.400Z,1.20
2019-05-25T16:45:40.540Z,1.20
2019-05-25T16:48:09.900Z,1.10
2019-05-25T16:50:38.034Z,1.23
2019-05-25T16:53:06.051Z,1.80
2019-05-25T16:55:33.965Z,1.47
2019-05-25T16:58:01.937Z,1.40
2019-05-25T17:00:30.004Z,1.40
2019-05-25T17:02:58.321Z,1.30
2019-05-25T17:05:26.750Z,1.43
2019-05-25T17:07:54.791Z,1.30
2019-05-25T17:10:22.792Z,1.33
2019-05-25T17:12:50.760Z,1.20
2019-05-25T17:15:18.940Z,1.40
2019-05-25T17:17:46.984Z,1.67
2019-05-25T17:20:15.032Z,1.43
2019-05-25T17:22:43.124Z,1.50
2019-05-25T17:25:11.179Z,1.30
2019-05-25T17:27:39.269Z,1.50
2019-05-25T17:30:07.803Z,1.43
2019-05-25T17:32:35.819Z,1.40
2019-05-25T17:35:04.678Z,1.30
2019-05-25T17:37:32.780Z,1.80
2019-05-25T17:40:00.696Z,1.50
2019-05-25T17:42:30.618Z,1.40
2019-05-25T17:44:58.700Z,1.40
2019-05-25T17:47:26.678Z,1.33
2019-05-25T17:49:54.678Z,1.27
2019-05-25T17:52:23.086Z,1.63
2019-05-25T17:54:51.488Z,2.23
2019-05-25T17:57:22.235Z,2.30
2019-05-25T17:59:50.260Z,2.07
2019-05-25T18:02:18.200Z,1.80
2019-05-25T18:04:46.332Z,1.80
2019-05-25T18:07:14.333Z,1.67
2019-05-25T18:09:42.284Z,1.63
2019-05-25T18:12:10.283Z,1.60
2019-05-25T18:14:38.220Z,1.50
2019-05-25T18:17:06.198Z,1.70
2019-05-25T18:19:34.225Z,1.40
2019-05-25T18:22:02.259Z,1.60
2019-05-25T18:24:30.243Z,1.40
2019-05-25T18:26:58.240Z,1.67
2019-05-25T18:29:26.202Z,1.50
2019-05-25T18:31:54.251Z,1.67
2019-05-25T18:34:22.691Z,1.73
2019-05-25T18:36:51.108Z,1.70
2019-05-25T18:39:19.207Z,1.90
2019-05-25T18:41:47.280Z,1.80
2019-05-25T18:44:15.207Z,1.93
2019-05-25T18:46:43.151Z,1.70
2019-05-25T18:49:11.142Z,1.70
2019-05-25T18:51:39.130Z,1.63
2019-05-25T18:54:07.364Z,1.33
2019-05-25T18:56:35.355Z,1.43
2019-05-25T18:59:03.363Z,1.70
2019-05-25T19:01:31.489Z,1.70
2019-05-25T19:03:59.505Z,1.67
2019-05-25T19:06:27.628Z,1.77
2019-05-25T19:08:55.633Z,1.70
2019-05-25T19:11:23.684Z,1.70
2019-05-25T19:13:51.798Z,1.67
2019-05-25T19:16:19.804Z,1.90
2019-05-25T19:18:47.734Z,1.80
2019-05-25T19:21:15.757Z,1.53
2019-05-25T19:23:43.716Z,1.83
2019-05-25T19:26:11.706Z,1.60
2019-05-25T19:28:39.666Z,1.57
2019-05-25T19:31:07.704Z,1.50
2019-05-25T19:33:35.740Z,1.43
2019-05-25T19:36:03.827Z,1.60
2019-05-25T19:38:31.809Z,1.50
2019-05-25T19:40:59.725Z,1.50
2019-05-25T19:43:29.334Z,1.50
2019-05-25T19:46:01.440Z,1.50
2019-05-25T19:48:29.410Z,1.40
2019-05-25T19:50:59.798Z,1.57
2019-05-25T19:53:27.871Z,1.50
2019-05-25T19:55:57.369Z,1.50
2019-05-25T19:58:25.444Z,1.40
2019-05-25T20:00:53.461Z,1.57
2019-05-25T20:03:21.488Z,1.33
2019-05-25T20:05:49.487Z,1.40
2019-05-25T20:08:17.530Z,1.30
2019-05-25T20:10:45.593Z,1.60
2019-05-25T20:13:13.759Z,1.63
2019-05-25T20:15:41.750Z,1.30
2019-05-25T20:18:09.738Z,1.70
2019-05-25T20:20:37.758Z,1.60
2019-05-25T20:23:05.791Z,1.50
2019-05-25T20:25:33.834Z,1.63
2019-05-25T20:28:03.630Z,1.40
2019-05-25T20:30:31.625Z,1.43
2019-05-25T20:32:59.616Z,1.47
2019-05-25T20:35:33.170Z,1.50
2019-05-25T20:37:57.288Z,1.60
2019-05-25T20:40:25.283Z,1.90
2019-05-25T20:42:53.393Z,1.50
2019-05-25T20:45:21.464Z,1.60
2019-05-25T20:47:49.471Z,1.47
2019-05-25T20:50:17.523Z,1.80
2019-05-25T20:52:45.453Z,1.70
2019-05-25T20:55:13.547Z,1.60
2019-05-25T20:57:41.686Z,1.60
2019-05-25T21:00:09.639Z,1.43
2019-05-25T21:02:37.598Z,1.83
2019-05-25T21:05:05.963Z,1.67
2019-05-25T21:07:34.034Z,2.00
2019-05-25T21:10:02.058Z,1.70
2019-05-25T21:12:30.044Z,1.70
2019-05-25T21:14:58.351Z,1.70
2019-05-25T21:17:26.340Z,1.60
2019-05-25T21:19:54.291Z,1.80
2019-05-25T21:22:22.359Z,1.70
2019-05-25T21:24:50.377Z,1.73
2019-05-25T21:27:18.326Z,2.00
2019-05-25T21:29:46.307Z,1.90
2019-05-25T21:32:14.311Z,2.10
2019-05-25T21:34:42.344Z,2.20
2019-05-25T21:37:10.264Z,2.20
2019-05-25T21:39:38.214Z,2.17
2019-05-25T21:42:06.271Z,2.60
2019-05-25T21:44:34.287Z,2.80
2019-05-25T21:47:02.223Z,2.33
2019-05-25T21:49:30.159Z,2.70
2019-05-25T21:52:35.406Z,2.57
2019-05-25T21:55:03.485Z,2.70
2019-05-25T21:57:31.509Z,3.00
2019-05-25T21:59:59.555Z,2.60
2019-05-25T22:02:27.538Z,2.47
2019-05-25T22:04:55.554Z,2.73
2019-05-25T22:07:23.637Z,2.83
2019-05-25T22:09:51.654Z,2.73
2019-05-25T22:12:19.708Z,2.80
2019-05-25T22:14:47.741Z,2.70
2019-05-25T22:17:15.782Z,2.57
2019-05-25T22:19:43.834Z,2.50
2019-05-25T22:22:12.577Z,2.90
2019-05-25T22:24:40.576Z,2.30
2019-05-25T22:27:08.625Z,2.67
2019-05-25T22:29:36.675Z,2.87
2019-05-25T22:32:04.715Z,2.43
2019-05-25T22:34:32.749Z,2.47
2019-05-25T22:37:00.821Z,2.80
2019-05-25T22:39:29.066Z,2.70
2019-05-25T22:41:57.035Z,2.70
2019-05-25T22:44:25.183Z,2.37
2019-05-25T22:46:53.233Z,2.67
2019-05-25T22:49:21.324Z,2.70
2019-05-25T22:51:49.409Z,2.80
2019-05-25T22:54:17.836Z,2.70
2019-05-25T22:56:45.827Z,2.70
2019-05-25T22:59:13.789Z,2.60
2019-05-25T23:01:41.706Z,2.47
2019-05-25T23:04:09.723Z,2.80
2019-05-25T23:06:37.755Z,2.53
2019-05-25T23:09:06.693Z,2.83
2019-05-25T23:11:34.708Z,2.43
2019-05-25T23:14:02.719Z,2.40
2019-05-25T23:16:30.781Z,2.50
2019-05-25T23:18:58.721Z,2.47
2019-05-25T23:21:26.751Z,2.73
2019-05-25T23:23:54.827Z,2.20
2019-05-25T23:26:22.960Z,2.40
2019-05-25T23:28:50.922Z,2.50
2019-05-25T23:31:18.852Z,2.20
2019-05-25T23:33:46.765Z,2.50
2019-05-25T23:36:14.733Z,2.40
2019-05-25T23:38:42.674Z,2.60
2019-05-25T23:41:10.580Z,2.60
2019-05-25T23:43:38.659Z,2.60
2019-05-25T23:46:06.652Z,2.50
2019-05-25T23:48:34.685Z,2.70
2019-05-25T23:51:02.906Z,2.53
2019-05-25T23:53:30.907Z,2.33
2019-05-25T23:55:58.896Z,2.30
2019-05-25T23:58:26.835Z,2.40
